Time;durP1;ratioP1;P1;durP2;ratioP2;P2;SDS_P1;SDS_P2;PMS_P1;PMS_P2;Temp;Humidity;BMP_temperature;BMP_pressure;BME280_temperature;BME280_humidity;BME280_pressure;Samples;Min_cycle;Max_cycle;Signal;HPM_P1;HPM_P2
2024/03/20 00:00:11;;;;;;;9.68;6.40;;;12.50;83.10;;;;;;6307103;22;20002;-67
2024/03/20 00:02:37;;;;;;;9.15;6.88;;;12.60;83.40;;;;;;6279800;22;20026;-67
2024/03/20 00:05:03;;;;;;;8.98;6.35;;;12.50;83.40;;;;;;6307773;22;19996;-67
2024/03/20 00:07:29;;;;;;;9.65;6.47;;;12.50;82.80;;;;;;6308252;22;20003;-67
2024/03/20 00:09:55;;;;;;;10.38;6.45;;;12.50;82.40;;;;;;6307473;22;20000;-67
2024/03/20 00:12:22;;;;;;;10.88;6.80;;;12.50;82.90;;;;;;6307877;22;20052;-67
2024/03/20 00:14:50;;;;;;;10.95;6.72;;;12.50;82.90;;;;;;6309357;22;19995;-67
2024/03/20 00:18:42;;;;;;;;;;;;;;;;;;;;;
2024/03/20 00:28:14;;;;;;;10.52;6.93;;;12.50;83.80;;;;;;5982560;23;20026;-67
2024/03/20 00:31:20;;;;;;;12.20;6.35;;;12.50;83.20;;;;;;5858035;24;20393;-67
2024/03/20 00:34:44;;;;;;;12.68;6.97;;;12.60;82.80;;;;;;5871937;24;20014;-67
2024/03/20 00:37:10;;;;;;;14.45;7.32;;;12.60;81.50;;;;;;5871696;24;20243;-67
2024/03/20 00:43:20;;;;;;;;;;;12.60;82.10;;;;;;5869161;24;20046;-67
2024/03/20 00:45:46;;;;;;;11.45;6.72;;;12.50;82.90;;;;;;5961471;23;20242;-67
2024/03/20 00:48:12;;;;;;;10.40;6.63;;;12.50;83.20;;;;;;6141341;23;20015;-67
2024/03/20 00:50:38;;;;;;;10.70;7.32;;;12.50;83.50;;;;;;6230063;22;20378;-67
2024/03/20 00:53:04;;;;;;;9.63;6.35;;;12.50;83.20;;;;;;6276101;22;20015;-67
2024/03/20 00:55:29;;;;;;;10.82;6.63;;;12.50;82.50;;;;;;6277707;22;20000;-67
2024/03/20 00:57:55;;;;;;;10.40;6.60;;;12.40;82.80;;;;;;6277824;22;20007;-67
2024/03/20 01:00:21;;;;;;;8.98;6.75;;;12.40;83.20;;;;;;6277986;22;20011;-67
2024/03/20 01:02:47;;;;;;;8.45;6.68;;;12.40;83.30;;;;;;6277481;22;20065;-67
2024/03/20 01:05:13;;;;;;;11.57;7.13;;;12.40;83.20;;;;;;6277673;22;19996;-66
2024/03/20 01:07:39;;;;;;;12.75;6.63;;;12.40;84.00;;;;;;6277650;22;20015;-67
2024/03/20 01:10:06;;;;;;;8.57;5.80;;;12.30;83.90;;;;;;6277599;22;20430;-67
2024/03/20 01:12:32;;;;;;;8.48;6.03;;;12.30;83.60;;;;;;6277855;22;20441;-67
2024/03/20 01:14:58;;;;;;;9.45;5.97;;;12.30;83.10;;;;;;6277401;22;20003;-67
2024/03/20 01:17:24;;;;;;;12.35;5.90;;;12.40;82.90;;;;;;6277864;22;20085;-67
2024/03/20 01:19:50;;;;;;;9.45;5.57;;;12.30;83.40;;;;;;6277873;22;20011;-67
2024/03/20 01:22:15;;;;;;;8.75;5.30;;;12.30;83.10;;;;;;6277696;22;20015;-67
2024/03/20 01:24:41;;;;;;;10.38;5.45;;;12.30;83.30;;;;;;6288268;22;20015;-67
2024/03/20 01:27:07;;;;;;;8.40;5.25;;;12.30;82.90;;;;;;6308462;22;20030;-67
2024/03/20 01:29:33;;;;;;;8.45;4.97;;;12.30;83.10;;;;;;6308343;22;20000;-67
2024/03/20 01:31:59;;;;;;;7.68;5.05;;;12.30;83.10;;;;;;6308590;22;20031;-67
2024/03/20 01:34:24;;;;;;;11.68;5.28;;;12.30;83.00;;;;;;6308806;22;20022;-67
2024/03/20 01:36:52;;;;;;;7.53;5.05;;;12.30;83.10;;;;;;6307934;22;20003;-67
2024/03/20 01:39:18;;;;;;;6.15;4.78;;;12.30;83.30;;;;;;6308065;22;20023;-67
2024/03/20 01:41:45;;;;;;;8.65;5.35;;;12.20;83.60;;;;;;6307893;22;20023;-67
2024/03/20 01:44:13;;;;;;;7.05;4.93;;;12.20;84.10;;;;;;6307548;22;20004;-67
2024/03/20 01:46:42;;;;;;;10.95;6.07;;;12.20;84.00;;;;;;6308047;22;20007;-67
2024/03/20 01:49:09;;;;;;;7.72;4.90;;;12.20;84.10;;;;;;6308690;22;20003;-67
2024/03/20 01:51:37;;;;;;;10.35;5.80;;;12.20;83.80;;;;;;6308850;22;20012;-67
2024/03/20 01:54:04;;;;;;;8.43;5.35;;;12.20;83.40;;;;;;6308848;22;20380;-67
2024/03/20 01:56:33;;;;;;;9.43;5.07;;;12.20;83.10;;;;;;6308779;22;20360;-67
2024/03/20 01:59:54;;;;;;;9.32;5.30;;;12.20;83.30;;;;;;6305307;22;20382;-67
2024/03/20 02:06:33;;;;;;;9.43;5.78;;;12.10;83.40;;;;;;6153268;23;20040;-67
2024/03/20 02:10:10;;;;;;;9.38;5.60;;;12.10;83.50;;;;;;6153704;23;20458;-67
2024/03/20 02:19:59;;;;;;;9.95;5.65;;;12.10;83.70;;;;;;5970881;24;20009;-67
2024/03/20 02:23:11;;;;;;;9.95;5.57;;;12.10;83.60;;;;;;5922926;24;20024;-67
2024/03/20 02:25:37;;;;;;;7.95;5.25;;;12.10;83.70;;;;;;5978210;23;20028;-67
2024/03/20 02:28:03;;;;;;;10.65;5.68;;;12.10;83.60;;;;;;6115971;23;20036;-67
2024/03/20 02:30:29;;;;;;;8.02;5.18;;;12.10;83.60;;;;;;6250177;22;20393;-67
2024/03/20 02:32:55;;;;;;;10.60;5.32;;;12.10;83.50;;;;;;6307396;22;20015;-67
2024/03/20 02:35:20;;;;;;;10.20;5.43;;;12.00;84.00;;;;;;6307401;22;20004;-67
2024/03/20 02:37:46;;;;;;;10.15;5.85;;;12.00;84.20;;;;;;6307665;22;20010;-67
2024/03/20 02:40:12;;;;;;;8.50;5.53;;;12.00;84.10;;;;;;6307428;22;20010;-67
2024/03/20 02:42:38;;;;;;;12.02;5.47;;;12.10;84.20;;;;;;6279920;22;20060;-66
2024/03/20 02:45:04;;;;;;;10.55;5.45;;;12.10;83.90;;;;;;6307564;22;20062;-67
2024/03/20 02:47:30;;;;;;;11.77;5.88;;;12.00;83.40;;;;;;6307504;22;20479;-67
2024/03/20 02:49:56;;;;;;;10.02;5.60;;;12.00;84.90;;;;;;6307684;22;19995;-67
2024/03/20 02:52:22;;;;;;;8.60;6.05;;;12.00;85.10;;;;;;6307778;22;20337;-67
2024/03/20 02:54:47;;;;;;;9.77;5.25;;;12.00;85.00;;;;;;6306816;22;19996;-67
2024/03/20 02:57:14;;;;;;;8.15;5.60;;;12.00;84.70;;;;;;6306857;22;19995;-67
2024/03/20 02:59:40;;;;;;;9.43;5.18;;;12.00;84.90;;;;;;6307672;22;20014;-67
2024/03/20 03:02:05;;;;;;;11.15;5.53;;;11.90;85.00;;;;;;6307239;22;20011;-66
2024/03/20 03:04:31;;;;;;;8.90;5.70;;;11.90;84.90;;;;;;6307103;22;19999;-67
2024/03/20 03:06:57;;;;;;;7.90;5.50;;;11.90;84.00;;;;;;6307522;22;20060;-66
2024/03/20 03:09:23;;;;;;;7.22;5.35;;;11.90;83.90;;;;;;6307500;22;19995;-67
2024/03/20 03:11:48;;;;;;;9.02;5.30;;;11.90;84.80;;;;;;6307374;22;20003;-67
2024/03/20 03:14:15;;;;;;;10.35;5.38;;;11.90;85.40;;;;;;6307003;22;19999;-67
2024/03/20 03:16:41;;;;;;;8.82;5.10;;;11.90;84.90;;;;;;6306834;22;20010;-67
2024/03/20 03:19:08;;;;;;;8.25;4.93;;;11.90;84.90;;;;;;6307405;22;20076;-67
2024/03/20 03:21:35;;;;;;;9.57;5.25;;;11.90;85.30;;;;;;6307279;22;20007;-67
2024/03/20 03:24:03;;;;;;;10.45;5.65;;;11.90;84.40;;;;;;6307027;22;20066;-67
2024/03/20 03:26:31;;;;;;;8.77;4.97;;;11.90;84.10;;;;;;6306813;22;20003;-67
2024/03/20 03:28:57;;;;;;;9.07;5.50;;;11.80;84.90;;;;;;6307947;22;20330;-67
2024/03/20 03:31:23;;;;;;;9.23;5.32;;;11.90;84.00;;;;;;6307820;22;20005;-67
2024/03/20 03:33:49;;;;;;;8.90;5.15;;;11.90;84.40;;;;;;6307345;22;20368;-67
2024/03/20 03:36:31;;;;;;;6.07;4.85;;;11.90;85.10;;;;;;6307507;22;19995;-67
2024/03/20 03:39:16;;;;;;;11.48;5.15;;;11.90;84.80;;;;;;6280122;22;20372;-67
2024/03/20 03:42:37;;;;;;;9.38;5.22;;;11.90;84.60;;;;;;6307130;22;20011;-68
2024/03/20 03:56:06;;;;;;;10.60;5.20;;;11.90;83.60;;;;;;5886602;24;20024;-67
2024/03/20 04:02:04;;;;;;;10.35;5.35;;;11.80;85.90;;;;;;5870271;24;20087;-67
2024/03/20 04:05:14;;;;;;;9.25;5.45;;;11.80;85.60;;;;;;5870268;24;20087;-67
2024/03/20 04:07:49;;;;;;;11.35;5.30;;;11.80;85.00;;;;;;6001592;23;20030;-67
2024/03/20 04:10:15;;;;;;;9.57;5.22;;;11.80;84.50;;;;;;6145076;23;20410;-67
2024/03/20 04:12:41;;;;;;;9.95;5.38;;;11.80;85.00;;;;;;6305640;22;20341;-67
2024/03/20 04:15:08;;;;;;;8.15;6.00;;;11.70;84.70;;;;;;6307035;22;20003;-67
2024/03/20 04:17:33;;;;;;;7.93;5.93;;;11.70;84.80;;;;;;6306954;22;20106;-67
2024/03/20 04:19:59;;;;;;;7.55;5.65;;;11.70;84.20;;;;;;6307364;22;20030;-67
2024/03/20 04:22:25;;;;;;;9.00;5.90;;;11.70;84.40;;;;;;6306939;22;20019;-67
2024/03/20 04:24:51;;;;;;;10.05;6.03;;;11.70;84.10;;;;;;6306696;22;20011;-67
2024/03/20 04:27:16;;;;;;;10.63;6.20;;;11.80;83.90;;;;;;6306998;22;20070;-67
2024/03/20 04:29:42;;;;;;;25.73;6.20;;;11.80;83.90;;;;;;6306892;22;19995;-67
2024/03/20 04:32:10;;;;;;;21.30;6.15;;;11.80;84.00;;;;;;6306892;22;20004;-67
2024/03/20 04:34:36;;;;;;;9.52;5.70;;;11.70;85.20;;;;;;6306985;22;19996;-67
2024/03/20 04:37:02;;;;;;;8.40;4.97;;;11.70;86.10;;;;;;6306549;22;20421;-67
2024/03/20 04:39:32;;;;;;;19.63;5.68;;;11.70;85.60;;;;;;6306462;22;20006;-67
2024/03/20 04:41:58;;;;;;;12.00;5.40;;;11.70;85.30;;;;;;6306672;22;20015;-67
2024/03/20 04:44:24;;;;;;;9.02;4.43;;;11.70;84.40;;;;;;6306827;22;20483;-66
2024/03/20 04:46:50;;;;;;;7.90;5.25;;;11.70;84.60;;;;;;6306571;22;20004;-67
2024/03/20 04:49:16;;;;;;;7.97;5.40;;;11.70;84.50;;;;;;6306512;22;19999;-67
2024/03/20 04:51:42;;;;;;;7.68;5.25;;;11.70;84.90;;;;;;6306738;22;20086;-67
2024/03/20 04:54:07;;;;;;;9.60;5.38;;;11.70;84.40;;;;;;6306413;22;20006;-67
2024/03/20 04:56:33;;;;;;;7.90;5.20;;;11.70;84.50;;;;;;6306594;22;20026;-67
2024/03/20 04:58:59;;;;;;;8.15;5.25;;;11.70;84.30;;;;;;6307497;22;20060;-67
2024/03/20 05:01:25;;;;;;;6.25;5.22;;;11.70;84.30;;;;;;6308575;22;20007;-67
2024/03/20 05:03:51;;;;;;;8.93;5.57;;;11.70;83.80;;;;;;6308724;22;20056;-67
2024/03/20 05:06:16;;;;;;;9.18;5.40;;;11.70;84.90;;;;;;6280748;22;20004;-67
2024/03/20 05:08:42;;;;;;;8.63;5.43;;;11.70;85.60;;;;;;6308112;22;20031;-67
2024/03/20 05:11:08;;;;;;;10.18;5.47;;;11.70;85.50;;;;;;6307858;22;20000;-68
2024/03/20 05:13:34;;;;;;;8.10;5.45;;;11.60;85.50;;;;;;6308847;22;20107;-68
2024/03/20 05:16:00;;;;;;;9.55;4.80;;;11.60;85.80;;;;;;6308634;22;20018;-67
2024/03/20 05:18:26;;;;;;;11.30;5.68;;;11.50;86.30;;;;;;6308739;22;20006;-67
2024/03/20 05:21:18;;;;;;;10.38;5.68;;;11.50;86.40;;;;;;6308577;22;19999;-67
2024/03/20 05:24:19;;;;;;;7.18;5.53;;;11.50;86.10;;;;;;6308430;22;20038;-67
2024/03/20 05:30:59;;;;;;;8.52;5.38;;;11.50;88.10;;;;;;6124905;23;20037;-67
2024/03/20 05:38:06;;;;;;;10.88;5.88;;;11.40;85.90;;;;;;5871433;24;20124;-66
2024/03/20 05:40:35;;;;;;;10.23;5.57;;;11.40;86.60;;;;;;5775574;24;20055;-67
2024/03/20 05:43:15;;;;;;;9.30;5.60;;;11.40;86.60;;;;;;5808321;24;20026;-67
2024/03/20 05:45:44;;;;;;;8.77;5.75;;;11.40;86.50;;;;;;5897930;24;20143;-67
2024/03/20 05:48:30;;;;;;;8.68;5.28;;;11.40;86.90;;;;;;6178576;22;20034;-67
2024/03/20 05:50:57;;;;;;;9.07;5.90;;;11.40;87.20;;;;;;6276905;22;20276;-67
2024/03/20 05:53:23;;;;;;;9.95;5.90;;;11.50;88.30;;;;;;6277044;22;20373;-67
2024/03/20 05:55:53;;;;;;;9.93;5.82;;;11.40;90.00;;;;;;6277521;22;20003;-66
2024/03/20 05:58:19;;;;;;;9.13;5.97;;;11.40;88.90;;;;;;6249993;22;20334;-67
2024/03/20 06:00:45;;;;;;;11.77;5.97;;;11.40;87.90;;;;;;6277101;22;20007;-66
2024/03/20 06:03:10;;;;;;;8.07;5.60;;;11.40;88.40;;;;;;6276967;22;20008;-66
2024/03/20 06:05:36;;;;;;;8.20;6.13;;;11.40;88.10;;;;;;6276957;22;20026;-67
2024/03/20 06:08:02;;;;;;;11.55;5.40;;;11.40;88.30;;;;;;6276979;22;20010;-67
2024/03/20 06:10:28;;;;;;;9.68;5.50;;;11.40;89.10;;;;;;6275704;22;20003;-67
2024/03/20 06:12:54;;;;;;;8.77;5.57;;;11.40;89.10;;;;;;6276244;22;20011;-67
2024/03/20 06:15:20;;;;;;;8.75;5.18;;;11.50;89.10;;;;;;6276957;22;20034;-67
2024/03/20 06:17:47;;;;;;;7.82;5.88;;;11.40;88.70;;;;;;6277161;22;20023;-67
2024/03/20 06:20:15;;;;;;;11.07;6.50;;;11.40;89.90;;;;;;6277265;22;20338;-67
2024/03/20 06:22:41;;;;;;;10.48;6.32;;;11.50;90.10;;;;;;6276282;22;20434;-67
2024/03/20 06:25:08;;;;;;;8.45;6.20;;;11.50;90.00;;;;;;6293705;22;20348;-67
2024/03/20 06:27:34;;;;;;;12.50;6.40;;;11.50;90.00;;;;;;6307183;22;20007;-67
2024/03/20 06:30:03;;;;;;;11.75;6.40;;;11.60;88.80;;;;;;6307725;22;20393;-66
2024/03/20 06:32:32;;;;;;;8.45;6.07;;;11.60;88.40;;;;;;6307755;22;20318;-66
2024/03/20 06:34:58;;;;;;;7.80;5.90;;;11.60;88.30;;;;;;6307664;22;20010;-66
2024/03/20 06:37:25;;;;;;;8.55;6.18;;;11.70;88.50;;;;;;6307509;22;20496;-67
2024/03/20 06:39:50;;;;;;;8.32;6.07;;;11.70;89.40;;;;;;6307846;22;20003;-67
2024/03/20 06:42:20;;;;;;;8.43;6.10;;;11.70;88.50;;;;;;6307426;22;20086;-67
2024/03/20 06:44:47;;;;;;;8.45;6.05;;;11.80;88.60;;;;;;6307828;22;20003;-67
2024/03/20 06:47:13;;;;;;;8.88;5.88;;;11.80;88.10;;;;;;6307183;22;20033;-67
2024/03/20 06:49:39;;;;;;;8.00;5.75;;;11.90;87.90;;;;;;6307659;22;20015;-67
2024/03/20 06:52:05;;;;;;;9.40;6.60;;;11.90;87.90;;;;;;6307198;22;20345;-67
2024/03/20 06:54:31;;;;;;;11.52;6.72;;;11.90;86.90;;;;;;6308109;22;19995;-66
2024/03/20 06:57:01;;;;;;;13.98;6.32;;;12.00;87.80;;;;;;6280530;22;20003;-67
2024/03/20 06:59:29;;;;;;;9.60;6.65;;;12.00;89.10;;;;;;6307799;22;20011;-67
2024/03/20 07:01:58;;;;;;;10.80;6.70;;;12.10;89.30;;;;;;6307908;22;20376;-67
2024/03/20 07:04:33;;;;;;;10.38;6.32;;;12.10;88.90;;;;;;6307942;22;20333;-66
2024/03/20 07:07:46;;;;;;;8.20;6.15;;;12.10;89.60;;;;;;6306884;22;19999;-67
2024/03/20 07:16:48;;;;;;;11.05;6.28;;;12.30;89.70;;;;;;6066154;23;20011;-66
2024/03/20 07:19:41;;;;;;;11.57;6.95;;;12.30;89.80;;;;;;6066068;23;20396;-67
2024/03/20 07:26:03;;;;;;;11.43;6.95;;;12.40;90.30;;;;;;6065422;23;20378;-67
2024/03/20 07:32:40;;;;;;;;;;;;;;;;;;;;;
2024/03/20 07:35:07;;;;;;;10.00;6.07;;;12.60;86.80;;;;;;6061258;23;20102;-67
2024/03/20 07:37:33;;;;;;;12.38;6.47;;;12.70;85.70;;;;;;6100182;23;20375;-66
2024/03/20 07:39:59;;;;;;;8.02;5.90;;;12.70;86.40;;;;;;6229788;22;20011;-67
2024/03/20 07:42:25;;;;;;;9.10;6.85;;;12.80;85.80;;;;;;6306850;22;20046;-66
2024/03/20 07:44:52;;;;;;;7.85;5.63;;;12.80;87.10;;;;;;6279331;22;20052;-66
2024/03/20 07:47:18;;;;;;;9.35;6.20;;;12.90;87.20;;;;;;6306673;22;20010;-66
2024/03/20 07:49:45;;;;;;;13.52;7.35;;;13.00;86.60;;;;;;6306950;22;20007;-66
2024/03/20 07:52:12;;;;;;;7.85;6.03;;;13.10;85.70;;;;;;6304715;22;20378;-69
2024/03/20 07:54:38;;;;;;;7.00;5.88;;;13.10;85.90;;;;;;6302846;22;20113;-67
2024/03/20 07:57:03;;;;;;;9.27;5.85;;;13.10;85.90;;;;;;6303010;22;20022;-67
2024/03/20 07:59:29;;;;;;;8.82;6.10;;;13.20;85.80;;;;;;6304804;22;20090;-68
2024/03/20 08:01:55;;;;;;;8.25;5.80;;;13.20;86.20;;;;;;6306126;22;20034;-68
2024/03/20 08:04:22;;;;;;;8.38;5.97;;;13.20;86.70;;;;;;6306583;22;20052;-68
2024/03/20 08:06:47;;;;;;;9.38;6.45;;;13.20;86.60;;;;;;6279598;22;20030;-66
2024/03/20 08:09:13;;;;;;;11.05;6.13;;;13.30;87.20;;;;;;6306719;22;19999;-66
2024/03/20 08:11:39;;;;;;;11.82;6.68;;;13.40;87.10;;;;;;6279291;22;20006;-67
2024/03/20 08:14:08;;;;;;;9.13;6.30;;;13.40;85.40;;;;;;6306133;22;20025;-67
2024/03/20 08:16:35;;;;;;;9.40;5.88;;;13.40;84.70;;;;;;6307103;22;19999;-68
2024/03/20 08:19:02;;;;;;;10.82;6.97;;;13.40;85.20;;;;;;6307133;22;20011;-68
2024/03/20 08:21:29;;;;;;;12.20;6.10;;;13.50;86.10;;;;;;6304004;22;20049;-66
2024/03/20 08:23:56;;;;;;;9.55;6.50;;;13.60;85.70;;;;;;6300377;22;20063;-66
2024/03/20 08:26:22;;;;;;;9.40;6.07;;;13.70;86.50;;;;;;6303745;22;20434;-66
2024/03/20 08:28:49;;;;;;;8.38;5.85;;;13.70;86.00;;;;;;6306482;22;20088;-65
2024/03/20 08:31:14;;;;;;;9.05;6.00;;;13.80;85.90;;;;;;6306655;22;20007;-66
2024/03/20 08:33:41;;;;;;;11.35;7.13;;;13.80;86.00;;;;;;6307028;22;20026;-66
2024/03/20 08:36:08;;;;;;;8.88;6.18;;;13.90;85.70;;;;;;6307099;22;20000;-65
2024/03/20 08:38:38;;;;;;;8.52;6.38;;;13.90;83.00;;;;;;6309126;22;20000;-66
2024/03/20 08:41:04;;;;;;;9.05;5.85;;;13.90;83.40;;;;;;6308653;22;20003;-66
2024/03/20 08:43:32;;;;;;;11.65;6.03;;;14.00;85.90;;;;;;6308477;22;20346;-66
2024/03/20 08:46:08;;;;;;;12.63;6.07;;;14.00;85.00;;;;;;6309238;22;20329;-66
2024/03/20 08:48:38;;;;;;;10.13;6.65;;;14.10;85.10;;;;;;6309171;22;20429;-65
2024/03/20 08:51:40;;;;;;;9.88;6.63;;;14.10;84.40;;;;;;6308279;22;20295;-66
2024/03/20 08:54:55;;;;;;;10.15;7.07;;;14.10;84.30;;;;;;6154033;23;20005;-65
2024/03/20 08:57:33;;;;;;;10.38;7.18;;;14.20;84.80;;;;;;6154030;23;20014;-66
2024/03/20 09:00:26;;;;;;;9.27;6.38;;;14.30;83.90;;;;;;6153950;23;20014;-66
2024/03/20 09:07:01;;;;;;;13.00;6.68;;;14.40;85.70;;;;;;5900821;24;20454;-66
2024/03/20 09:09:51;;;;;;;12.13;6.88;;;14.40;81.90;;;;;;6003421;23;20090;-66
2024/03/20 09:12:30;;;;;;;11.38;6.55;;;14.50;83.00;;;;;;6064087;23;20018;-66
2024/03/20 09:14:56;;;;;;;9.00;6.05;;;14.50;83.70;;;;;;6117011;23;20012;-66
2024/03/20 09:17:22;;;;;;;10.95;6.00;;;14.50;84.70;;;;;;6259137;22;20012;-66
2024/03/20 09:19:48;;;;;;;8.68;5.72;;;14.60;84.90;;;;;;6306400;22;20004;-68
2024/03/20 09:22:14;;;;;;;8.43;6.35;;;14.80;90.60;;;;;;6307870;22;20390;-66
2024/03/20 09:24:40;;;;;;;9.05;6.07;;;14.70;86.00;;;;;;6307292;22;20043;-66
2024/03/20 09:27:05;;;;;;;9.82;6.13;;;14.80;86.90;;;;;;6307836;22;20003;-66
2024/03/20 09:29:31;;;;;;;13.50;5.70;;;14.90;86.40;;;;;;6307861;22;19999;-67
2024/03/20 09:31:57;;;;;;;8.68;5.70;;;14.90;85.30;;;;;;6307817;22;20074;-65
2024/03/20 09:34:23;;;;;;;8.65;6.43;;;15.00;85.10;;;;;;6307681;22;20003;-66
2024/03/20 09:36:49;;;;;;;8.43;5.97;;;15.00;84.90;;;;;;6308013;22;19996;-66
2024/03/20 09:39:15;;;;;;;10.68;5.43;;;15.10;84.20;;;;;;6307706;22;20003;-66
2024/03/20 09:41:41;;;;;;;8.57;5.32;;;15.10;83.80;;;;;;6308631;22;20091;-66
2024/03/20 09:44:12;;;;;;;9.45;5.45;;;15.10;82.90;;;;;;6308093;22;20050;-66
2024/03/20 09:46:38;;;;;;;6.40;5.03;;;15.20;84.30;;;;;;6307828;22;20440;-68
2024/03/20 09:49:04;;;;;;;11.27;5.15;;;15.20;85.30;;;;;;6307823;22;20003;-66
2024/03/20 09:51:30;;;;;;;11.50;5.05;;;15.30;84.80;;;;;;6308340;22;19999;-66
2024/03/20 09:53:58;;;;;;;7.43;5.38;;;15.30;84.00;;;;;;6308128;22;20084;-66
2024/03/20 09:56:27;;;;;;;5.97;4.47;;;15.40;83.70;;;;;;6307847;22;20004;-67
2024/03/20 09:58:56;;;;;;;9.73;5.72;;;15.40;83.20;;;;;;6307987;22;20082;-71
2024/03/20 10:01:22;;;;;;;8.82;5.53;;;15.50;82.30;;;;;;6307307;22;20027;-78
2024/03/20 10:03:55;;;;;;;10.07;5.18;;;15.70;89.50;;;;;;6307555;22;20007;-76
2024/03/20 10:06:25;;;;;;;13.80;5.57;;;15.60;81.40;;;;;;6307599;22;20003;-77
2024/03/20 10:08:51;;;;;;;5.47;4.20;;;15.60;83.00;;;;;;6307385;22;20003;-78
2024/03/20 10:11:18;;;;;;;7.30;4.00;;;15.70;83.20;;;;;;6307373;22;19996;-75
2024/03/20 10:13:44;;;;;;;9.55;4.30;;;15.90;93.60;;;;;;6306035;22;20030;-75
2024/03/20 10:16:14;;;;;;;7.93;4.65;;;15.80;79.80;;;;;;6306202;22;20002;-67
2024/03/20 10:18:44;;;;;;;5.75;3.85;;;15.80;81.00;;;;;;6306652;22;20078;-69
2024/03/20 10:21:10;;;;;;;5.63;3.97;;;16.00;83.50;;;;;;6306768;22;20372;-67
2024/03/20 10:23:41;;;;;;;16.52;4.40;;;16.00;78.70;;;;;;6306726;22;20007;-67
2024/03/20 10:26:07;;;;;;;5.10;3.10;;;16.10;82.70;;;;;;6306959;22;20015;-67
2024/03/20 10:29:11;;;;;;;7.22;4.28;;;16.10;83.20;;;;;;6307997;22;19995;-67
2024/03/20 10:39:00;;;;;;;7.18;4.50;;;16.30;80.40;;;;;;6066267;23;20018;-66
2024/03/20 10:49:13;;;;;;;6.88;4.30;;;16.60;91.70;;;;;;5894706;24;20551;-66
2024/03/20 10:54:30;;;;;;;6.13;3.92;;;16.70;85.90;;;;;;5902647;23;20062;-66
2024/03/20 10:56:59;;;;;;;23.08;6.15;;;16.80;85.30;;;;;;6104787;23;20197;-66
2024/03/20 10:59:30;;;;;;;10.48;4.65;;;16.90;86.90;;;;;;6283362;22;20328;-67
2024/03/20 11:02:08;;;;;;;8.13;4.15;;;17.00;84.40;;;;;;6307406;22;20333;-66
2024/03/20 11:04:34;;;;;;;9.65;4.43;;;17.10;81.60;;;;;;6307574;22;20006;-66
2024/03/20 11:07:01;;;;;;;5.97;4.20;;;17.10;86.50;;;;;;6279737;22;20368;-67
2024/03/20 11:09:30;;;;;;;8.73;4.03;;;17.20;90.30;;;;;;6307488;22;20082;-66
2024/03/20 11:11:56;;;;;;;5.68;3.70;;;17.30;84.50;;;;;;6279656;22;20357;-66
2024/03/20 11:14:30;;;;;;;6.43;4.00;;;17.20;81.50;;;;;;6307100;22;19999;-70
2024/03/20 11:17:01;;;;;;;9.88;3.53;;;17.30;79.90;;;;;;6307048;22;19999;-66
2024/03/20 11:19:27;;;;;;;5.78;3.78;;;17.40;80.20;;;;;;6276259;22;20015;-67
2024/03/20 11:21:55;;;;;;;6.50;4.10;;;17.50;79.80;;;;;;6276436;22;20008;-67
2024/03/20 11:24:22;;;;;;;5.20;3.55;;;17.50;77.20;;;;;;6276578;22;20007;-67
2024/03/20 11:26:48;;;;;;;7.85;3.70;;;17.60;78.90;;;;;;6276236;22;20307;-66
2024/03/20 11:29:13;;;;;;;6.40;3.75;;;17.60;81.00;;;;;;6276047;22;20027;-66
2024/03/20 11:31:39;;;;;;;4.72;3.17;;;17.70;80.60;;;;;;6276001;22;20007;-66
2024/03/20 11:34:06;;;;;;;7.38;3.80;;;17.70;76.20;;;;;;6276036;22;20007;-66
2024/03/20 11:36:32;;;;;;;5.68;3.35;;;17.80;75.00;;;;;;6276673;22;20017;-66
2024/03/20 11:38:58;;;;;;;5.60;3.60;;;17.80;77.30;;;;;;6276569;22;20004;-66
2024/03/20 11:41:24;;;;;;;5.55;3.45;;;17.90;77.40;;;;;;6276414;22;20012;-66
2024/03/20 11:43:50;;;;;;;6.88;3.80;;;17.90;74.20;;;;;;6274879;22;20006;-66
2024/03/20 11:46:17;;;;;;;5.82;3.38;;;18.00;78.10;;;;;;6274900;22;20004;-65
2024/03/20 11:48:55;;;;;;;6.65;3.65;;;18.10;76.20;;;;;;6276267;22;20375;-66
2024/03/20 11:52:17;;;;;;;4.22;3.20;;;18.10;76.50;;;;;;6274821;22;20007;-67
2024/03/20 11:58:40;;;;;;;7.30;4.10;;;18.30;73.90;;;;;;6164456;23;20036;-66
2024/03/20 12:09:08;;;;;;;6.90;4.30;;;18.50;72.80;;;;;;6008480;23;20056;-66
2024/03/20 12:12:15;;;;;;;8.02;5.20;;;18.60;74.30;;;;;;5994950;23;20060;-66
2024/03/20 12:14:43;;;;;;;5.93;4.28;;;18.60;72.50;;;;;;5998799;23;20067;-66
2024/03/20 12:17:11;;;;;;;6.13;4.57;;;18.60;71.30;;;;;;6154451;23;20057;-66
2024/03/20 12:19:37;;;;;;;9.35;5.32;;;18.60;72.40;;;;;;6253137;22;20046;-66
2024/03/20 12:22:06;;;;;;;7.70;4.53;;;18.70;73.90;;;;;;6277631;22;20008;-67
2024/03/20 12:24:32;;;;;;;7.30;4.50;;;18.80;74.70;;;;;;6277852;22;20372;-66
2024/03/20 12:26:58;;;;;;;8.43;4.88;;;18.80;74.80;;;;;;6277284;22;20333;-66
2024/03/20 12:29:24;;;;;;;6.63;5.07;;;18.90;73.70;;;;;;6277491;22;20334;-66
2024/03/20 12:31:50;;;;;;;8.95;4.80;;;19.00;72.10;;;;;;6278087;22;20010;-66
2024/03/20 12:34:17;;;;;;;9.13;5.82;;;19.00;71.00;;;;;;6276441;22;20007;-66
2024/03/20 12:36:43;;;;;;;8.85;5.30;;;19.00;73.10;;;;;;6277528;22;20054;-66
2024/03/20 12:39:10;;;;;;;7.22;5.32;;;19.00;75.00;;;;;;6277219;22;20091;-67
2024/03/20 12:41:37;;;;;;;6.97;4.85;;;19.10;74.20;;;;;;6277596;22;20011;-66
2024/03/20 12:44:03;;;;;;;7.05;5.22;;;19.20;72.70;;;;;;6277565;22;20075;-67
2024/03/20 12:46:29;;;;;;;7.95;4.90;;;19.10;71.30;;;;;;6277786;22;19996;-66
2024/03/20 12:48:55;;;;;;;7.72;5.97;;;19.10;71.30;;;;;;6277576;22;20010;-65
2024/03/20 12:51:21;;;;;;;7.50;5.40;;;19.10;70.20;;;;;;6277678;22;20071;-66
2024/03/20 12:53:48;;;;;;;6.70;4.97;;;19.20;72.00;;;;;;6277409;22;20004;-67
2024/03/20 12:56:15;;;;;;;8.43;4.53;;;19.30;73.30;;;;;;6277635;22;20421;-64
2024/03/20 12:58:40;;;;;;;6.22;4.78;;;19.30;71.00;;;;;;6277303;22;20000;-67
2024/03/20 13:01:09;;;;;;;7.93;5.57;;;19.30;72.00;;;;;;6277279;22;20003;-66
2024/03/20 13:03:35;;;;;;;8.70;4.57;;;19.40;70.70;;;;;;6277487;22;20038;-66
2024/03/20 13:06:02;;;;;;;7.22;4.70;;;19.40;71.80;;;;;;6277319;22;20004;-66
2024/03/20 13:08:28;;;;;;;7.57;4.80;;;19.40;69.60;;;;;;6277497;22;19999;-66
2024/03/20 13:10:57;;;;;;;6.78;5.22;;;19.50;71.00;;;;;;6277204;22;20000;-66
2024/03/20 13:13:27;;;;;;;6.50;4.63;;;19.50;72.10;;;;;;6277477;22;20000;-66
2024/03/20 13:16:03;;;;;;;8.45;5.38;;;19.50;70.80;;;;;;6277454;22;19996;-66
2024/03/20 13:18:36;;;;;;;8.10;5.28;;;19.50;69.10;;;;;;6278297;22;20110;-66
2024/03/20 13:21:26;;;;;;;8.68;4.35;;;19.50;69.30;;;;;;6277920;22;20130;-67
2024/03/20 13:23:59;;;;;;;8.32;5.50;;;19.50;71.40;;;;;;6278121;22;20026;-66
2024/03/20 13:26:31;;;;;;;9.48;5.18;;;19.40;69.00;;;;;;6277342;22;20071;-66
2024/03/20 13:32:57;;;;;;;6.80;4.43;;;19.30;70.40;;;;;;6277698;22;20010;-79
2024/03/20 13:35:33;;;;;;;6.78;4.70;;;19.40;70.40;;;;;;6229372;22;20007;-80
2024/03/20 13:38:28;;;;;;;7.43;5.20;;;19.40;70.50;;;;;;6276921;22;19996;-78
2024/03/20 13:47:09;;;;;;;10.00;5.18;;;19.40;68.60;;;;;;6247378;22;20511;-74
2024/03/20 13:49:43;;;;;;;6.60;4.50;;;19.30;69.30;;;;;;6276749;22;19995;-75
2024/03/20 13:52:16;;;;;;;8.88;5.05;;;19.30;71.40;;;;;;6276852;22;20336;-66
2024/03/20 13:54:43;;;;;;;10.07;7.18;;;19.40;71.10;;;;;;6275591;22;20443;-65
2024/03/20 13:57:12;;;;;;;11.57;7.75;;;19.30;71.40;;;;;;6277047;22;20322;-66
2024/03/20 13:59:40;;;;;;;8.50;7.60;;;19.30;72.20;;;;;;6275219;22;20003;-67
2024/03/20 14:02:26;;;;;;;9.75;8.13;;;19.20;71.80;;;;;;6276763;22;20039;-67
2024/03/20 14:04:53;;;;;;;10.05;7.90;;;19.20;71.60;;;;;;6276298;22;20042;-66
2024/03/20 14:07:21;;;;;;;10.80;7.70;;;19.20;72.60;;;;;;6276134;22;20002;-67
2024/03/20 14:09:50;;;;;;;12.68;9.93;;;19.20;71.90;;;;;;6276745;22;20031;-67
2024/03/20 14:12:17;;;;;;;13.63;9.90;;;19.20;72.70;;;;;;6276985;22;20003;-66
2024/03/20 14:14:43;;;;;;;24.77;19.02;;;19.20;72.90;;;;;;6275772;22;20027;-67
2024/03/20 14:17:17;;;;;;;15.60;9.82;;;19.10;70.90;;;;;;6275755;22;20356;-66
2024/03/20 14:19:45;;;;;;;14.50;10.30;;;19.10;74.20;;;;;;6277015;22;20011;-67
2024/03/20 14:22:11;;;;;;;13.40;9.70;;;19.10;74.10;;;;;;6249499;22;20015;-67
2024/03/20 14:24:37;;;;;;;16.48;10.77;;;19.10;72.40;;;;;;6276653;22;20434;-67
2024/03/20 14:27:14;;;;;;;15.63;9.57;;;19.10;73.90;;;;;;6276991;22;20304;-67
2024/03/20 14:29:45;;;;;;;11.73;9.60;;;19.10;73.80;;;;;;6276888;22;20066;-67
2024/03/20 14:32:12;;;;;;;18.60;12.68;;;19.10;72.80;;;;;;6276142;22;20457;-67
2024/03/20 14:34:39;;;;;;;16.27;11.82;;;19.00;73.20;;;;;;6276976;22;20038;-67
2024/03/20 14:37:05;;;;;;;28.70;18.23;;;19.00;75.00;;;;;;6276658;22;20057;-67
2024/03/20 14:39:36;;;;;;;12.48;9.85;;;19.00;72.70;;;;;;6276664;22;19996;-67
2024/03/20 14:42:03;;;;;;;19.00;13.18;;;18.90;70.60;;;;;;6274732;22;20020;-67
2024/03/20 14:44:29;;;;;;;12.57;9.20;;;18.90;73.10;;;;;;6276506;22;19996;-67